Time;durP1;ratioP1;P1;durP2;ratioP2;P2;SDS_P1;SDS_P2;PMS_P1;PMS_P2;Temp;Humidity;BMP_temperature;BMP_pressure;BME280_temperature;BME280_humidity;BME280_pressure;Samples;Min_cycle;Max_cycle;Signal;HPM_P1;HPM_P2
2022/12/24 00:01:33;;;;;;;19.77;17.77;;;7.00;99.90;;;;;;4978737;28;20452;-79
2022/12/24 00:04:01;;;;;;;20.40;17.23;;;7.00;99.90;;;;;;4979166;28;20446;-79
2022/12/24 00:06:31;;;;;;;19.90;17.80;;;7.00;99.90;;;;;;4996418;28;20454;-79
2022/12/24 00:09:00;;;;;;;19.83;17.73;;;6.90;99.90;;;;;;4997706;28;20468;-79
2022/12/24 00:11:28;;;;;;;18.90;16.63;;;6.90;99.90;;;;;;4998791;28;20443;-79
2022/12/24 00:13:56;;;;;;;19.13;16.10;;;7.00;99.90;;;;;;5000938;28;20441;-79
2022/12/24 00:16:24;;;;;;;19.67;17.20;;;6.90;99.90;;;;;;5001808;28;20477;-79
2022/12/24 00:18:53;;;;;;;15.97;13.20;;;6.90;99.90;;;;;;5002591;28;20450;-79
2022/12/24 00:21:21;;;;;;;19.17;16.20;;;6.90;99.90;;;;;;5003728;28;20465;-79
2022/12/24 00:23:50;;;;;;;20.40;16.50;;;6.90;99.90;;;;;;5005272;28;20472;-79
2022/12/24 00:26:19;;;;;;;20.17;17.70;;;6.90;99.90;;;;;;5010634;28;20538;-79
2022/12/24 00:28:47;;;;;;;20.27;18.17;;;6.90;99.90;;;;;;5011856;28;20457;-79
2022/12/24 00:31:17;;;;;;;19.27;17.20;;;6.90;99.90;;;;;;5010880;28;20454;-79
2022/12/24 00:33:46;;;;;;;18.80;16.73;;;6.90;99.90;;;;;;5005467;28;20436;-79
2022/12/24 00:36:15;;;;;;;19.93;17.20;;;6.90;99.90;;;;;;5001656;28;20481;-79
2022/12/24 00:38:44;;;;;;;21.37;17.93;;;6.90;99.90;;;;;;5001392;28;20451;-79
2022/12/24 00:41:24;;;;;;;20.20;17.53;;;6.90;99.90;;;;;;5001082;28;20456;-79
2022/12/24 00:43:54;;;;;;;21.30;18.60;;;6.90;99.90;;;;;;4997981;28;20449;-79
2022/12/24 00:46:22;;;;;;;18.00;16.10;;;6.90;99.90;;;;;;4995328;28;20461;-79
2022/12/24 00:48:51;;;;;;;18.90;16.87;;;7.00;99.90;;;;;;4995862;28;20478;-79
2022/12/24 00:51:20;;;;;;;19.50;17.10;;;6.90;99.90;;;;;;4995713;28;20445;-79
2022/12/24 00:53:48;;;;;;;18.03;15.83;;;6.90;99.90;;;;;;4995272;28;20512;-79
2022/12/24 00:56:18;;;;;;;18.63;15.90;;;6.90;99.90;;;;;;4994250;28;20882;-79
2022/12/24 00:58:47;;;;;;;17.70;15.80;;;7.00;99.90;;;;;;4995166;28;20456;-78
2022/12/24 01:01:15;;;;;;;17.70;15.83;;;7.00;99.90;;;;;;4996636;28;20448;-79
2022/12/24 01:03:44;;;;;;;18.60;15.70;;;6.90;99.90;;;;;;4996039;28;20469;-79
2022/12/24 01:06:14;;;;;;;18.03;16.20;;;6.90;99.90;;;;;;4995980;28;20471;-79
2022/12/24 01:08:43;;;;;;;19.10;17.00;;;6.90;99.90;;;;;;4997699;28;20488;-79
2022/12/24 01:11:13;;;;;;;19.93;17.83;;;7.00;99.90;;;;;;4999409;28;20521;-78
2022/12/24 01:13:42;;;;;;;20.07;17.97;;;7.00;99.90;;;;;;4999567;28;20473;-78
2022/12/24 01:16:15;;;;;;;18.90;16.60;;;7.00;99.90;;;;;;4999220;28;20508;-79
2022/12/24 01:18:44;;;;;;;17.87;16.07;;;7.00;99.90;;;;;;5001234;28;20959;-78
2022/12/24 01:21:12;;;;;;;18.27;16.40;;;6.90;99.90;;;;;;5001235;28;20830;-79
2022/12/24 01:23:40;;;;;;;19.50;17.37;;;6.90;99.90;;;;;;5001026;28;20477;-79
2022/12/24 01:26:10;;;;;;;17.60;15.80;;;6.90;99.90;;;;;;4998122;28;20826;-78
2022/12/24 01:28:39;;;;;;;16.90;15.10;;;7.00;99.90;;;;;;4997832;28;20458;-79
2022/12/24 01:31:13;;;;;;;16.90;15.20;;;6.90;99.90;;;;;;4997486;28;20559;-78
2022/12/24 01:33:42;;;;;;;17.90;16.00;;;7.00;99.90;;;;;;4998931;28;20430;-79
2022/12/24 01:36:11;;;;;;;18.80;16.90;;;6.90;99.90;;;;;;4997282;28;20527;-78
2022/12/24 01:38:39;;;;;;;18.30;16.17;;;7.00;99.90;;;;;;4998836;28;20825;-77
2022/12/24 01:43:59;;;;;;;17.30;15.10;;;7.00;99.90;;;;;;4997136;28;20499;-79
2022/12/24 01:46:31;;;;;;;18.33;16.43;;;7.00;99.90;;;;;;4996147;28;20458;-78
2022/12/24 01:49:05;;;;;;;17.63;15.73;;;7.00;99.90;;;;;;4997067;28;20504;-79
2022/12/24 01:51:37;;;;;;;18.47;15.77;;;7.00;99.90;;;;;;4996926;28;20540;-78
2022/12/24 01:54:09;;;;;;;16.83;15.13;;;7.00;99.90;;;;;;4996517;28;20536;-79
2022/12/24 01:56:42;;;;;;;16.50;14.90;;;7.00;99.90;;;;;;4997231;28;20434;-79
2022/12/24 01:59:14;;;;;;;16.17;14.47;;;6.90;99.90;;;;;;4998508;28;20500;-79
2022/12/24 02:01:43;;;;;;;17.97;15.30;;;7.00;99.90;;;;;;4996960;28;20516;-79
2022/12/24 02:04:17;;;;;;;17.03;15.03;;;7.00;99.90;;;;;;4998785;28;20469;-79
2022/12/24 02:06:45;;;;;;;17.43;15.60;;;6.90;99.90;;;;;;4998848;28;20441;-79
2022/12/24 02:09:14;;;;;;;16.40;14.60;;;6.90;99.90;;;;;;4998928;28;20448;-79
2022/12/24 02:11:46;;;;;;;19.13;15.97;;;6.90;99.90;;;;;;4998631;28;20810;-79
2022/12/24 02:14:16;;;;;;;16.63;14.93;;;6.90;99.90;;;;;;4998143;28;20450;-79
2022/12/24 02:16:53;;;;;;;17.47;15.63;;;6.90;99.90;;;;;;4999432;28;20874;-79
2022/12/24 02:19:50;;;;;;;17.43;15.63;;;6.90;99.90;;;;;;4996924;28;20477;-79
2022/12/24 02:22:28;;;;;;;16.50;14.80;;;6.90;99.90;;;;;;4978876;28;20478;-79
2022/12/24 02:25:19;;;;;;;17.93;15.70;;;6.90;99.90;;;;;;4999234;28;20477;-78
2022/12/24 02:27:56;;;;;;;17.17;15.37;;;7.00;99.90;;;;;;4998695;28;20434;-79
2022/12/24 02:30:32;;;;;;;17.80;15.97;;;6.90;99.90;;;;;;4997330;28;20445;-79
2022/12/24 02:33:17;;;;;;;19.67;15.30;;;6.90;99.90;;;;;;4998706;28;20479;-79
2022/12/24 02:35:51;;;;;;;17.33;15.33;;;6.90;99.90;;;;;;4996265;28;20569;-79
2022/12/24 02:38:25;;;;;;;17.93;16.00;;;6.90;99.90;;;;;;4997593;28;20469;-80
2022/12/24 02:40:57;;;;;;;16.90;15.10;;;6.90;99.90;;;;;;5001951;28;20461;-79
2022/12/24 02:43:32;;;;;;;16.20;14.60;;;6.90;99.90;;;;;;5001635;28;20453;-79
2022/12/24 02:46:06;;;;;;;18.23;16.30;;;7.00;99.90;;;;;;5001951;28;20528;-80
2022/12/24 02:48:37;;;;;;;18.80;15.97;;;6.90;99.90;;;;;;4997068;28;20449;-79
2022/12/24 02:51:10;;;;;;;18.03;15.40;;;6.90;99.90;;;;;;4998117;28;20444;-79
2022/12/24 02:53:40;;;;;;;18.87;15.47;;;7.00;99.90;;;;;;4996685;28;20541;-79
2022/12/24 02:56:34;;;;;;;19.10;16.67;;;7.00;99.90;;;;;;4996329;28;20511;-79
2022/12/24 02:59:29;;;;;;;18.23;16.10;;;7.00;99.90;;;;;;4995798;28;20465;-78
2022/12/24 03:02:08;;;;;;;16.63;14.90;;;6.90;99.90;;;;;;4996287;28;20453;-79
2022/12/24 03:04:45;;;;;;;16.63;14.90;;;6.90;99.90;;;;;;4997847;28;20477;-79
2022/12/24 03:07:20;;;;;;;17.67;15.77;;;6.90;99.90;;;;;;4996240;28;20437;-79
2022/12/24 03:10:06;;;;;;;17.50;15.70;;;7.00;99.90;;;;;;4995707;28;20456;-79
2022/12/24 03:12:40;;;;;;;16.60;14.90;;;6.90;99.90;;;;;;4995803;28;20442;-79
2022/12/24 03:15:12;;;;;;;18.43;16.53;;;6.90;99.90;;;;;;4995620;28;20502;-78
2022/12/24 03:17:45;;;;;;;19.53;16.30;;;7.00;99.90;;;;;;4995378;28;20501;-78
2022/12/24 03:20:17;;;;;;;16.20;14.50;;;6.90;99.90;;;;;;4996159;28;21019;-79
2022/12/24 03:22:46;;;;;;;18.23;16.20;;;6.90;99.90;;;;;;4995699;28;20478;-79
2022/12/24 03:25:15;;;;;;;18.90;16.37;;;6.90;99.90;;;;;;4994048;28;20470;-79
2022/12/24 03:27:44;;;;;;;18.03;16.27;;;6.90;99.90;;;;;;4996483;28;20477;-79
2022/12/24 03:30:14;;;;;;;18.43;16.53;;;6.90;99.90;;;;;;4994883;28;20447;-79
2022/12/24 03:32:46;;;;;;;18.60;16.17;;;6.90;99.90;;;;;;4996132;28;20470;-78
2022/12/24 03:35:14;;;;;;;18.73;16.73;;;6.90;99.90;;;;;;4994845;28;20513;-78
2022/12/24 03:37:43;;;;;;;19.10;16.40;;;6.90;99.90;;;;;;4994657;28;20463;-78
2022/12/24 03:40:12;;;;;;;19.57;17.47;;;6.90;99.90;;;;;;4995148;28;21018;-79
2022/12/24 03:42:40;;;;;;;19.20;17.00;;;7.00;99.90;;;;;;4994760;28;20461;-78
2022/12/24 03:45:09;;;;;;;20.93;18.83;;;6.90;99.90;;;;;;4995203;28;20835;-78
2022/12/24 03:47:37;;;;;;;20.30;18.20;;;6.90;99.90;;;;;;4996308;28;20460;-79
2022/12/24 03:50:08;;;;;;;19.80;17.70;;;7.00;99.90;;;;;;4996740;28;20437;-78
2022/12/24 03:52:36;;;;;;;19.93;17.03;;;6.90;99.90;;;;;;4995873;28;20463;-79
2022/12/24 03:55:05;;;;;;;19.77;17.73;;;7.00;99.90;;;;;;4994990;28;20465;-79
2022/12/24 03:57:33;;;;;;;20.67;18.47;;;6.90;99.90;;;;;;4994652;28;20545;-78
2022/12/24 04:00:02;;;;;;;19.77;17.57;;;7.00;99.90;;;;;;4994756;28;20541;-78
2022/12/24 04:02:39;;;;;;;19.50;17.50;;;6.90;99.90;;;;;;4996105;28;20466;-79
2022/12/24 04:05:15;;;;;;;19.80;17.70;;;7.00;99.90;;;;;;4995944;28;20469;-79
2022/12/24 04:07:43;;;;;;;19.37;17.27;;;7.00;99.90;;;;;;4994311;28;20438;-79
2022/12/24 04:10:12;;;;;;;21.87;18.07;;;7.00;99.90;;;;;;4994417;28;20460;-79
2022/12/24 04:12:40;;;;;;;19.63;17.57;;;7.00;99.90;;;;;;4995064;28;20818;-79
2022/12/24 04:15:10;;;;;;;22.20;19.90;;;7.00;99.90;;;;;;4994801;28;20483;-79
2022/12/24 04:17:38;;;;;;;20.00;17.40;;;7.00;99.90;;;;;;4996349;28;20447;-79
2022/12/24 04:20:09;;;;;;;19.30;17.30;;;7.00;99.90;;;;;;4997503;28;20480;-79
2022/12/24 04:22:37;;;;;;;20.83;18.63;;;7.00;99.90;;;;;;4997339;28;20436;-79
2022/12/24 04:25:07;;;;;;;20.20;18.00;;;7.00;99.90;;;;;;4997494;28;20472;-79
2022/12/24 04:27:35;;;;;;;22.50;19.00;;;7.00;99.90;;;;;;4996285;28;20440;-79
2022/12/24 04:30:04;;;;;;;21.07;17.77;;;7.00;99.90;;;;;;4996340;28;20452;-79
2022/12/24 04:32:32;;;;;;;21.20;19.10;;;7.00;99.90;;;;;;4997020;28;20504;-79
2022/12/24 04:35:00;;;;;;;23.00;19.17;;;7.10;99.90;;;;;;4995709;28;20490;-79
2022/12/24 04:37:30;;;;;;;24.20;20.33;;;7.00;99.90;;;;;;4995530;28;20501;-78
2022/12/24 04:39:58;;;;;;;30.63;23.47;;;7.10;99.90;;;;;;4995659;28;20837;-79
2022/12/24 04:42:26;;;;;;;31.60;25.20;;;7.10;99.90;;;;;;4998275;28;20484;-79
2022/12/24 04:44:54;;;;;;;33.77;26.90;;;7.10;99.90;;;;;;5000678;28;20497;-79
2022/12/24 04:47:23;;;;;;;37.17;28.00;;;7.10;99.90;;;;;;5000598;28;20485;-79
2022/12/24 04:49:51;;;;;;;35.40;28.40;;;7.10;99.90;;;;;;5000431;28;20971;-78
2022/12/24 04:52:19;;;;;;;40.57;30.33;;;7.20;99.90;;;;;;4999132;28;20453;-79
2022/12/24 04:54:48;;;;;;;41.07;31.00;;;7.20;99.90;;;;;;4998679;28;20474;-79
2022/12/24 04:57:16;;;;;;;50.93;32.73;;;7.20;99.90;;;;;;4998930;28;20826;-79
2022/12/24 04:59:44;;;;;;;45.67;33.10;;;7.20;99.90;;;;;;5000611;28;20470;-79
2022/12/24 05:02:12;;;;;;;49.20;32.10;;;7.30;99.90;;;;;;4998944;28;20449;-79
2022/12/24 05:04:41;;;;;;;45.03;32.60;;;7.30;99.90;;;;;;4997309;28;20488;-79
2022/12/24 05:07:09;;;;;;;45.77;33.37;;;7.40;99.90;;;;;;4999261;28;20509;-78
2022/12/24 05:09:37;;;;;;;50.50;34.87;;;7.50;99.90;;;;;;5002579;28;20550;-78
2022/12/24 05:12:07;;;;;;;45.60;33.77;;;7.40;99.90;;;;;;5000502;28;20538;-79
2022/12/24 05:14:35;;;;;;;46.73;33.50;;;7.50;99.90;;;;;;5000082;28;20467;-78
2022/12/24 05:17:04;;;;;;;50.27;32.97;;;7.50;99.90;;;;;;4999409;28;20984;-79
2022/12/24 05:19:32;;;;;;;42.73;31.33;;;7.60;99.90;;;;;;4997698;28;20475;-79
2022/12/24 05:27:33;;;;;;;42.83;31.50;;;7.70;99.90;;;;;;4999424;28;20848;-78
2022/12/24 05:30:01;;;;;;;37.97;29.17;;;7.70;99.90;;;;;;4998938;28;20448;-78
2022/12/24 05:32:29;;;;;;;41.53;29.33;;;7.80;99.90;;;;;;4999092;28;20450;-79
2022/12/24 05:34:57;;;;;;;44.37;29.50;;;7.80;99.90;;;;;;5005288;28;20503;-79
2022/12/24 05:37:25;;;;;;;38.50;27.80;;;7.90;99.90;;;;;;5005415;28;20903;-78
2022/12/24 05:39:53;;;;;;;37.00;26.83;;;7.90;99.90;;;;;;5004279;28;20475;-79
2022/12/24 05:42:21;;;;;;;34.20;26.40;;;7.90;99.90;;;;;;4997925;28;20451;-78
2022/12/24 05:44:51;;;;;;;37.30;25.20;;;7.90;99.90;;;;;;4997277;28;20478;-78
2022/12/24 05:47:20;;;;;;;30.07;23.00;;;8.00;99.90;;;;;;4997156;28;20811;-79
2022/12/24 05:49:48;;;;;;;27.93;21.27;;;8.00;99.90;;;;;;4998578;28;20447;-79
2022/12/24 05:52:16;;;;;;;31.70;21.73;;;8.00;99.90;;;;;;4997310;28;20444;-79
2022/12/24 05:54:44;;;;;;;31.73;22.80;;;8.00;99.90;;;;;;4997045;28;20494;-79
2022/12/24 05:57:12;;;;;;;26.47;19.40;;;8.10;99.90;;;;;;4996826;28;20450;-78
2022/12/24 05:59:41;;;;;;;27.40;19.00;;;8.10;99.90;;;;;;4998261;28;20471;-78
2022/12/24 06:02:11;;;;;;;23.80;18.33;;;8.10;99.90;;;;;;4996853;28;20984;-79
2022/12/24 06:04:39;;;;;;;26.80;18.37;;;8.20;99.90;;;;;;4996489;28;20503;-79
2022/12/24 06:07:07;;;;;;;27.60;18.97;;;8.20;99.90;;;;;;4996578;28;20812;-78
2022/12/24 06:09:35;;;;;;;24.63;17.20;;;8.20;99.90;;;;;;4996283;28;20456;-79
2022/12/24 06:12:04;;;;;;;34.37;18.00;;;8.20;99.90;;;;;;4996772;28;20456;-78
2022/12/24 06:14:32;;;;;;;21.87;16.10;;;8.30;99.90;;;;;;4996946;28;20604;-78
2022/12/24 06:17:00;;;;;;;25.80;16.40;;;8.30;99.90;;;;;;4996623;28;20451;-79
2022/12/24 06:19:30;;;;;;;24.57;14.30;;;8.40;99.90;;;;;;4996607;28;20473;-79
2022/12/24 06:21:58;;;;;;;26.67;14.80;;;8.40;99.90;;;;;;4996758;28;20854;-79
2022/12/24 06:24:26;;;;;;;25.93;13.70;;;8.40;99.90;;;;;;4996431;28;21051;-79
2022/12/24 06:26:54;;;;;;;28.20;13.20;;;8.40;99.90;;;;;;4993090;28;20452;-78
2022/12/24 06:29:22;;;;;;;23.73;13.93;;;8.40;99.90;;;;;;5001239;28;20463;-79
2022/12/24 06:31:53;;;;;;;30.17;13.23;;;8.40;99.90;;;;;;5003149;28;20475;-79
2022/12/24 06:34:21;;;;;;;26.47;12.73;;;8.40;99.90;;;;;;4981994;28;20465;-79
2022/12/24 06:36:51;;;;;;;26.77;12.83;;;8.40;99.90;;;;;;4976097;28;20464;-79
2022/12/24 06:39:19;;;;;;;25.07;12.87;;;8.50;99.90;;;;;;4975903;28;20448;-79
2022/12/24 06:41:47;;;;;;;30.03;13.10;;;8.40;99.90;;;;;;4975449;28;21014;-78
2022/12/24 06:44:15;;;;;;;33.10;13.93;;;8.50;99.90;;;;;;4976609;28;20456;-78
2022/12/24 06:46:43;;;;;;;25.73;11.77;;;8.50;99.90;;;;;;4993228;28;20958;-79
2022/12/24 06:49:12;;;;;;;23.67;11.87;;;8.50;99.90;;;;;;4994856;28;20563;-78
2022/12/24 06:51:40;;;;;;;30.37;12.33;;;8.50;99.90;;;;;;4994974;28;20447;-78
2022/12/24 06:54:10;;;;;;;25.43;11.03;;;8.50;99.90;;;;;;4994757;28;20460;-79
2022/12/24 06:56:38;;;;;;;28.43;10.83;;;8.50;99.90;;;;;;4993550;28;20447;-79
2022/12/24 06:59:06;;;;;;;29.43;11.83;;;8.50;99.90;;;;;;4993118;28;20511;-78
2022/12/24 07:01:34;;;;;;;24.83;10.23;;;8.50;99.90;;;;;;4992388;28;20839;-79
2022/12/24 07:04:02;;;;;;;33.83;10.07;;;8.50;99.90;;;;;;4993407;28;20456;-78
2022/12/24 07:06:31;;;;;;;26.13;9.13;;;8.50;99.90;;;;;;4993987;28;20479;-78
2022/12/24 07:08:59;;;;;;;25.40;9.37;;;8.50;99.90;;;;;;4992802;28;20449;-79
2022/12/24 07:11:28;;;;;;;22.97;8.80;;;8.50;99.90;;;;;;4992937;28;20459;-79
2022/12/24 07:13:56;;;;;;;24.33;8.73;;;8.50;99.90;;;;;;4992555;28;20460;-78
2022/12/24 07:16:24;;;;;;;25.97;8.87;;;8.50;99.90;;;;;;4993077;28;20469;-80
2022/12/24 07:18:53;;;;;;;31.27;9.70;;;8.50;99.90;;;;;;4990598;28;20510;-79
2022/12/24 07:21:21;;;;;;;29.47;10.10;;;8.50;99.90;;;;;;4994061;28;20988;-78
2022/12/24 07:23:49;;;;;;;26.93;8.83;;;8.50;99.90;;;;;;4992550;28;20448;-78
2022/12/24 07:26:17;;;;;;;25.97;9.63;;;8.50;99.90;;;;;;4993724;28;20472;-79
2022/12/24 07:28:47;;;;;;;26.53;9.00;;;8.50;99.90;;;;;;4992417;28;20966;-78
2022/12/24 07:31:15;;;;;;;29.50;10.60;;;8.50;99.90;;;;;;4992843;28;20543;-79
2022/12/24 07:33:44;;;;;;;26.33;9.27;;;8.60;99.90;;;;;;4994854;28;20457;-80
2022/12/24 07:36:18;;;;;;;32.33;10.13;;;8.60;99.90;;;;;;4994380;28;20547;-79
2022/12/24 07:38:46;;;;;;;27.77;9.53;;;8.60;99.90;;;;;;4992806;28;20915;-79
2022/12/24 07:41:15;;;;;;;28.43;8.80;;;8.60;99.90;;;;;;4994252;28;20484;-80
2022/12/24 07:43:43;;;;;;;27.43;8.60;;;8.60;99.90;;;;;;4992825;28;20814;-79
2022/12/24 07:46:13;;;;;;;22.73;8.03;;;8.60;99.90;;;;;;4992501;28;20475;-79
2022/12/24 07:48:41;;;;;;;40.20;10.23;;;8.60;99.90;;;;;;4994069;28;20471;-79
2022/12/24 07:51:09;;;;;;;32.13;9.73;;;8.60;99.90;;;;;;4992182;28;20448;-78
2022/12/24 07:53:37;;;;;;;26.47;9.23;;;8.60;99.90;;;;;;4992518;28;20467;-79
2022/12/24 07:56:06;;;;;;;29.87;9.23;;;8.60;99.90;;;;;;4992225;28;20491;-80
2022/12/24 07:58:43;;;;;;;39.33;10.57;;;8.60;99.90;;;;;;4992398;28;20456;-79
2022/12/24 08:01:12;;;;;;;25.30;8.90;;;8.60;99.90;;;;;;4992186;28;20843;-79
2022/12/24 08:03:40;;;;;;;38.63;9.87;;;8.60;99.90;;;;;;4992161;28;21005;-79
2022/12/24 08:06:09;;;;;;;26.30;8.80;;;8.60;99.90;;;;;;4993365;28;20460;-79
2022/12/24 08:08:38;;;;;;;32.00;9.87;;;8.70;99.90;;;;;;4992283;28;20452;-79
2022/12/24 08:11:07;;;;;;;24.23;9.13;;;8.70;99.90;;;;;;4991085;28;20496;-79
2022/12/24 08:13:35;;;;;;;31.00;9.73;;;8.70;99.90;;;;;;4993431;28;20459;-79
2022/12/24 08:16:04;;;;;;;25.27;10.20;;;8.70;99.90;;;;;;4992555;28;20480;-78
2022/12/24 08:18:33;;;;;;;29.83;10.87;;;8.70;99.90;;;;;;4993206;28;20480;-79
2022/12/24 08:21:01;;;;;;;30.50;9.97;;;8.70;99.90;;;;;;4995352;28;20515;-79
2022/12/24 08:23:30;;;;;;;33.23;10.43;;;8.70;99.90;;;;;;4993405;28;20460;-78
2022/12/24 08:25:58;;;;;;;31.33;9.90;;;8.70;99.90;;;;;;4990408;28;20993;-79
2022/12/24 08:28:26;;;;;;;27.73;11.50;;;8.70;99.90;;;;;;4996156;28;20448;-79
2022/12/24 08:30:54;;;;;;;36.30;12.20;;;8.70;99.90;;;;;;5013367;28;20512;-78
2022/12/24 08:33:23;;;;;;;27.80;11.60;;;8.70;99.90;;;;;;5013624;28;20548;-79
2022/12/24 08:35:53;;;;;;;30.10;12.00;;;8.70;99.90;;;;;;4972209;28;1159080;-79
2022/12/24 08:38:22;;;;;;;31.97;12.97;;;8.70;99.90;;;;;;4998172;28;20555;-79
2022/12/24 08:40:52;;;;;;;32.03;12.10;;;8.70;99.90;;;;;;4996882;28;20472;-79
2022/12/24 08:43:21;;;;;;;39.60;12.67;;;8.80;99.90;;;;;;4995119;28;20450;-79
2022/12/24 08:45:50;;;;;;;29.67;10.97;;;8.80;99.90;;;;;;4995936;28;21001;-78
2022/12/24 08:48:18;;;;;;;34.63;11.77;;;8.80;99.90;;;;;;4995552;28;20503;-78
2022/12/24 08:50:47;;;;;;;28.90;11.53;;;8.80;99.90;;;;;;4995433;28;20459;-78
2022/12/24 08:53:16;;;;;;;41.00;12.97;;;8.90;99.90;;;;;;4995017;28;20448;-79
2022/12/24 08:55:44;;;;;;;41.27;12.10;;;8.90;99.90;;;;;;4995122;28;20468;-78
2022/12/24 08:58:20;;;;;;;41.37;12.70;;;8.80;99.90;;;;;;4995354;28;20506;-78
2022/12/24 09:00:48;;;;;;;35.60;13.10;;;8.90;99.90;;;;;;4997694;28;20973;-79
2022/12/24 09:03:17;;;;;;;41.63;13.83;;;8.90;99.90;;;;;;4997246;28;20491;-78
2022/12/24 09:05:54;;;;;;;31.67;13.27;;;8.90;99.90;;;;;;4997555;28;20570;-79
2022/12/24 09:08:23;;;;;;;35.20;13.47;;;8.90;99.90;;;;;;4998849;28;20433;-79
2022/12/24 09:10:52;;;;;;;33.10;13.87;;;8.90;99.90;;;;;;4998880;28;20705;-78
2022/12/24 09:13:20;;;;;;;38.30;12.80;;;9.00;99.90;;;;;;4997746;28;20468;-79
2022/12/24 09:15:53;;;;;;;33.13;14.47;;;9.00;99.90;;;;;;4997649;28;20567;-79
2022/12/24 09:18:21;;;;;;;35.60;14.90;;;9.00;99.90;;;;;;4997285;28;20436;-78
2022/12/24 09:20:50;;;;;;;40.10;16.33;;;9.00;99.90;;;;;;4997394;28;20448;-79
2022/12/24 09:23:25;;;;;;;39.20;16.60;;;9.10;99.90;;;;;;4998572;28;20507;-78
2022/12/24 09:25:53;;;;;;;33.20;15.90;;;9.10;99.90;;;;;;4999879;28;20465;-79
2022/12/24 09:28:22;;;;;;;43.80;15.73;;;9.10;99.90;;;;;;4998469;28;20707;-79
2022/12/24 09:30:58;;;;;;;32.70;15.37;;;9.20;99.90;;;;;;4998727;28;20472;-79
2022/12/24 09:33:26;;;;;;;30.70;14.80;;;9.20;99.90;;;;;;4998794;28;20452;-79
2022/12/24 09:35:55;;;;;;;36.30;14.80;;;9.20;99.90;;;;;;4999891;28;20834;-79
2022/12/24 09:38:25;;;;;;;32.13;13.90;;;9.20;99.90;;;;;;4999845;28;20417;-78
2022/12/24 09:40:54;;;;;;;35.53;15.03;;;9.20;99.90;;;;;;5000270;28;20517;-79
2022/12/24 09:43:24;;;;;;;34.37;14.40;;;9.30;99.90;;;;;;4999544;28;20450;-79
2022/12/24 09:46:03;;;;;;;36.17;14.33;;;9.30;99.90;;;;;;4998452;28;20476;-79
2022/12/24 09:48:34;;;;;;;27.33;12.17;;;9.30;99.90;;;;;;4997471;28;20457;-79
2022/12/24 09:51:06;;;;;;;31.00;12.20;;;9.30;99.90;;;;;;4981234;28;20469;-80
2022/12/24 09:53:43;;;;;;;39.43;15.30;;;9.30;99.90;;;;;;4981348;28;20508;-78
2022/12/24 09:56:15;;;;;;;33.67;14.40;;;9.30;99.90;;;;;;4981592;28;20461;-79
2022/12/24 09:58:47;;;;;;;35.23;13.90;;;9.30;99.90;;;;;;4977956;28;20473;-79
2022/12/24 10:01:17;;;;;;;29.93;13.50;;;9.40;99.90;;;;;;4979748;28;20562;-79
2022/12/24 10:03:47;;;;;;;28.63;12.07;;;9.40;99.90;;;;;;4979036;28;20496;-79
2022/12/24 10:06:18;;;;;;;34.53;12.23;;;9.40;99.90;;;;;;4979491;28;20477;-78
2022/12/24 10:09:07;;;;;;;28.63;11.40;;;9.40;99.90;;;;;;4979507;28;20441;-79
2022/12/24 10:11:46;;;;;;;27.57;12.47;;;9.40;99.90;;;;;;4978031;28;20508;-78
2022/12/24 10:14:30;;;;;;;28.10;11.50;;;9.50;99.90;;;;;;4978406;28;20854;-79
2022/12/24 10:17:12;;;;;;;32.50;13.53;;;9.50;99.90;;;;;;4978661;28;20931;-79
2022/12/24 10:19:50;;;;;;;29.17;12.23;;;9.50;99.90;;;;;;4979693;28;20461;-79
2022/12/24 10:22:27;;;;;;;26.03;12.50;;;9.50;99.90;;;;;;4978652;28;20471;-79
2022/12/24 10:25:05;;;;;;;31.70;13.83;;;9.50;99.90;;;;;;4978809;28;20468;-79
2022/12/24 10:27:36;;;;;;;31.73;13.40;;;9.60;99.90;;;;;;4979557;28;20472;-78
2022/12/24 10:30:13;;;;;;;28.80;13.10;;;9.50;99.90;;;;;;4977099;28;20438;-78
2022/12/24 10:32:45;;;;;;;28.07;12.83;;;9.60;99.90;;;;;;4978741;28;20421;-80
2022/12/24 10:35:23;;;;;;;34.40;13.47;;;9.60;99.90;;;;;;4977582;28;20470;-80
2022/12/24 10:37:52;;;;;;;27.90;12.23;;;9.60;99.90;;;;;;4978026;28;20492;-78
2022/12/24 10:40:35;;;;;;;28.10;11.87;;;9.60;99.90;;;;;;4991647;28;20452;-80
2022/12/24 10:43:12;;;;;;;34.67;13.70;;;9.60;99.90;;;;;;4997900;28;20527;-78
2022/12/24 10:45:45;;;;;;;30.10;12.13;;;9.60;99.90;;;;;;5003320;28;20540;-79
2022/12/24 10:48:21;;;;;;;30.97;11.70;;;9.60;99.90;;;;;;5006183;28;20449;-80
2022/12/24 10:51:02;;;;;;;33.90;12.70;;;9.60;99.90;;;;;;5002679;28;20451;-80
2022/12/24 10:53:44;;;;;;;28.60;12.80;;;9.60;99.90;;;;;;4999198;28;20511;-80
2022/12/24 10:56:16;;;;;;;36.00;13.73;;;9.60;99.90;;;;;;4999772;28;20522;-79
2022/12/24 10:58:46;;;;;;;29.80;11.77;;;9.70;99.90;;;;;;5000845;28;20429;-79
2022/12/24 11:01:15;;;;;;;32.50;12.80;;;9.70;99.90;;;;;;4999273;28;20453;-80
2022/12/24 11:03:43;;;;;;;28.73;13.00;;;9.70;99.90;;;;;;4998665;28;20465;-80
2022/12/24 11:06:13;;;;;;;32.80;13.40;;;9.70;99.90;;;;;;4998808;28;20476;-79
2022/12/24 11:08:43;;;;;;;29.27;12.27;;;9.80;99.90;;;;;;4999413;28;20532;-79
2022/12/24 11:11:15;;;;;;;35.33;11.90;;;9.80;99.90;;;;;;4999568;28;20452;-79
2022/12/24 11:13:45;;;;;;;30.10;12.27;;;9.80;99.90;;;;;;4998281;28;20451;-79
2022/12/24 11:16:18;;;;;;;33.40;12.33;;;9.80;99.90;;;;;;4997710;28;20469;-78
2022/12/24 11:18:49;;;;;;;26.00;11.83;;;9.80;99.90;;;;;;4999025;28;20445;-79
2022/12/24 11:21:21;;;;;;;33.37;12.40;;;9.80;99.90;;;;;;4997590;28;20433;-80
2022/12/24 11:23:53;;;;;;;29.83;11.70;;;9.80;99.90;;;;;;4997349;28;20994;-78
2022/12/24 11:26:25;;;;;;;25.60;10.97;;;9.90;99.90;;;;;;4998918;28;20480;-80
2022/12/24 11:29:15;;;;;;;28.17;11.63;;;9.90;99.90;;;;;;4996054;28;20467;-79
2022/12/24 11:31:44;;;;;;;28.00;12.27;;;9.90;99.90;;;;;;4998226;28;20460;-79
2022/12/24 11:34:24;;;;;;;29.23;12.20;;;9.90;99.90;;;;;;4999665;28;20444;-80
2022/12/24 11:36:54;;;;;;;34.37;12.13;;;10.00;99.90;;;;;;4997462;28;21070;-80
2022/12/24 11:39:24;;;;;;;27.50;12.57;;;10.00;99.90;;;;;;4997069;28;20480;-78
2022/12/24 11:41:54;;;;;;;33.27;13.67;;;10.00;99.90;;;;;;4999562;28;20869;-79
2022/12/24 11:44:26;;;;;;;32.20;13.43;;;10.00;99.90;;;;;;4998809;28;20983;-80
2022/12/24 11:46:56;;;;;;;28.80;13.70;;;10.10;99.90;;;;;;4997872;28;20484;-80
2022/12/24 11:49:27;;;;;;;27.33;12.90;;;10.00;99.90;;;;;;4998019;28;20818;-80
2022/12/24 11:52:21;;;;;;;33.20;14.30;;;10.10;99.90;;;;;;4996941;28;20480;-78
2022/12/24 11:54:59;;;;;;;32.23;14.70;;;10.10;99.90;;;;;;4996703;28;20465;-80
2022/12/24 11:57:37;;;;;;;33.33;13.67;;;10.10;99.90;;;;;;4998137;28;20899;-78
2022/12/24 12:00:09;;;;;;;34.77;14.00;;;10.10;99.90;;;;;;4998508;28;20437;-79
2022/12/24 12:02:41;;;;;;;30.83;13.87;;;10.10;99.90;;;;;;4997978;28;20468;-79
2022/12/24 12:05:13;;;;;;;40.17;14.83;;;10.20;99.90;;;;;;4997539;28;20480;-79
2022/12/24 12:07:43;;;;;;;28.63;14.10;;;10.10;99.90;;;;;;4997669;28;20467;-79
2022/12/24 12:10:17;;;;;;;29.63;14.73;;;10.20;99.90;;;;;;5000336;28;20891;-79
2022/12/24 12:12:54;;;;;;;27.83;14.70;;;10.20;99.90;;;;;;4999846;28;20452;-79
2022/12/24 12:15:26;;;;;;;27.20;13.93;;;10.20;99.90;;;;;;4999393;28;20627;-78
2022/12/24 12:17:58;;;;;;;36.00;14.20;;;10.20;99.90;;;;;;4997713;28;20456;-79
2022/12/24 12:20:30;;;;;;;30.23;14.63;;;10.20;99.90;;;;;;4997559;28;20459;-79
2022/12/24 12:23:03;;;;;;;30.07;13.27;;;10.20;99.90;;;;;;4998690;28;20453;-79
2022/12/24 12:25:38;;;;;;;30.53;13.83;;;10.20;99.90;;;;;;4998124;28;20468;-80
2022/12/24 12:28:15;;;;;;;25.67;13.60;;;10.20;99.90;;;;;;4999173;28;20487;-79
2022/12/24 12:30:44;;;;;;;29.23;13.23;;;10.30;99.90;;;;;;4998083;28;20440;-80
2022/12/24 12:33:20;;;;;;;29.80;13.60;;;10.30;99.90;;;;;;4998427;28;20463;-79
2022/12/24 12:35:50;;;;;;;26.20;12.77;;;10.30;99.90;;;;;;4998236;28;20454;-81
2022/12/24 12:38:22;;;;;;;39.50;15.20;;;10.30;99.90;;;;;;4997206;28;20441;-80
2022/12/24 12:41:10;;;;;;;24.77;13.60;;;10.30;99.90;;;;;;4998312;28;20455;-80
2022/12/24 12:44:05;;;;;;;23.33;12.77;;;10.30;99.90;;;;;;4996500;28;20475;-79
2022/12/24 12:46:47;;;;;;;24.27;11.70;;;10.30;99.90;;;;;;4983980;28;20503;-79
2022/12/24 12:49:29;;;;;;;21.40;11.70;;;10.40;99.90;;;;;;4999023;28;20460;-80
2022/12/24 12:52:06;;;;;;;20.90;10.97;;;10.40;99.90;;;;;;4999815;28;20514;-79
2022/12/24 12:54:58;;;;;;;25.07;11.33;;;10.40;99.90;;;;;;4998579;28;20544;-79
2022/12/24 12:57:33;;;;;;;20.03;10.73;;;10.40;99.90;;;;;;4999227;28;20437;-79
2022/12/24 13:00:05;;;;;;;21.03;10.07;;;10.40;99.90;;;;;;5000828;28;20809;-81
2022/12/24 13:03:00;;;;;;;16.87;10.53;;;10.40;99.90;;;;;;5001004;28;20436;-80
2022/12/24 13:06:04;;;;;;;22.83;9.50;;;10.40;99.90;;;;;;5013061;28;20500;-79